createdAt,value
2019-04-29T00:04:09.554Z,9.93
2019-04-29T00:09:17.355Z,8.80
2019-04-29T00:14:22.518Z,9.93
2019-04-29T00:19:38.563Z,8.30
2019-04-29T00:24:43.610Z,8.23
2019-04-29T00:29:48.699Z,8.70
2019-04-29T00:34:54.119Z,9.13
2019-04-29T00:40:00.883Z,8.73
2019-04-29T00:45:07.111Z,8.50
2019-04-29T00:50:12.327Z,9.47
2019-04-29T00:55:22.123Z,4.03
2019-04-29T01:00:32.883Z,7.03
2019-04-29T01:05:38.023Z,8.13
2019-04-29T01:10:43.076Z,6.90
2019-04-29T01:15:48.192Z,9.60
2019-04-29T01:20:53.208Z,7.47
2019-04-29T01:25:59.890Z,8.20
2019-04-29T01:31:07.528Z,10.37
2019-04-29T01:36:16.924Z,9.00
2019-04-29T01:41:32.327Z,9.50
2019-04-29T01:46:37.444Z,11.20
2019-04-29T01:51:42.535Z,11.63
2019-04-29T01:56:47.598Z,10.80
2019-04-29T02:01:52.688Z,14.20
2019-04-29T02:06:57.747Z,13.60
2019-04-29T02:12:03.004Z,13.23
2019-04-29T02:17:08.064Z,15.37
2019-04-29T02:22:20.639Z,12.77
2019-04-29T02:27:25.623Z,14.70
2019-04-29T02:32:30.644Z,15.43
2019-04-29T02:37:37.414Z,17.97
2019-04-29T02:42:43.997Z,17.27
2019-04-29T02:47:48.980Z,16.30
2019-04-29T02:52:53.930Z,18.90
2019-04-29T02:58:06.380Z,17.97
2019-04-29T03:03:13.144Z,17.07
2019-04-29T03:08:18.244Z,22.20
2019-04-29T03:13:23.372Z,20.80
2019-04-29T03:18:30.104Z,25.50
2019-04-29T03:23:35.138Z,24.70
2019-04-29T03:28:40.202Z,26.17
2019-04-29T03:33:45.262Z,25.03
2019-04-29T03:38:50.239Z,28.13
2019-04-29T03:43:55.263Z,23.97
2019-04-29T03:49:00.464Z,23.60
2019-04-29T03:54:07.204Z,26.87
2019-04-29T03:59:12.261Z,26.13
2019-04-29T04:04:35.080Z,27.63
2019-04-29T04:09:40.098Z,27.03
2019-04-29T04:14:45.059Z,28.90
2019-04-29T04:19:50.236Z,32.87
2019-04-29T04:24:55.779Z,25.40
2019-04-29T04:30:00.930Z,24.70
2019-04-29T04:35:07.568Z,26.30
2019-04-29T04:40:17.763Z,25.03
2019-04-29T04:45:22.761Z,27.40
2019-04-29T04:50:27.871Z,31.93
2019-04-29T04:55:34.602Z,28.90
2019-04-29T05:00:39.768Z,26.93
2019-04-29T05:05:44.803Z,28.70
2019-04-29T05:10:49.760Z,29.87
2019-04-29T05:15:54.717Z,26.67
2019-04-29T05:20:59.776Z,27.93
2019-04-29T05:26:04.892Z,28.90
2019-04-29T05:31:09.911Z,27.70
2019-04-29T05:36:19.503Z,24.70
2019-04-29T05:41:25.026Z,25.23
2019-04-29T05:46:31.660Z,28.30
2019-04-29T05:51:41.146Z,26.73
2019-04-29T05:56:46.128Z,27.87
2019-04-29T06:01:51.891Z,30.23
2019-04-29T06:06:56.951Z,28.63
2019-04-29T06:12:01.994Z,26.23
2019-04-29T06:17:07.820Z,24.37
2019-04-29T06:22:12.892Z,25.33
2019-04-29T06:27:17.899Z,27.07
2019-04-29T06:32:24.891Z,26.93
2019-04-29T06:37:29.530Z,24.13
2019-04-29T06:42:34.656Z,25.10
2019-04-29T06:47:39.604Z,27.50
2019-04-29T06:52:44.624Z,26.10
2019-04-29T06:57:49.647Z,24.03
2019-04-29T07:02:54.905Z,28.20
2019-04-29T07:07:59.875Z,33.57
2019-04-29T07:13:05.042Z,30.83
2019-04-29T07:18:10.131Z,24.60
2019-04-29T07:23:15.123Z,28.23
2019-04-29T07:28:21.702Z,31.17
2019-04-29T07:33:28.355Z,26.77
2019-04-29T07:38:41.312Z,27.30
2019-04-29T07:43:43.178Z,27.63
2019-04-29T07:49:00.509Z,28.67
2019-04-29T07:53:53.300Z,23.73
2019-04-29T07:58:58.893Z,27.47
2019-04-29T08:04:05.152Z,29.47
2019-04-29T08:09:11.352Z,25.40
2019-04-29T08:14:18.543Z,28.33
2019-04-29T08:19:28.841Z,26.40
2019-04-29T08:24:31.206Z,28.33
2019-04-29T08:29:37.407Z,26.03
2019-04-29T08:34:42.667Z,26.40
2019-04-29T08:40:00.544Z,28.60
2019-04-29T08:44:59.688Z,27.77
2019-04-29T08:50:02.655Z,25.57
2019-04-29T08:55:09.523Z,24.40
2019-04-29T09:00:15.559Z,25.73
2019-04-29T09:05:20.765Z,26.37
2019-04-29T09:10:25.890Z,26.07
2019-04-29T09:15:30.984Z,26.67
2019-04-29T09:20:36.039Z,26.53
2019-04-29T09:25:42.629Z,23.63
2019-04-29T09:30:48.986Z,22.27
2019-04-29T09:35:54.019Z,21.50
2019-04-29T09:41:01.573Z,23.37
2019-04-29T09:46:09.613Z,21.53
2019-04-29T09:51:17.857Z,20.33
2019-04-29T09:56:21.546Z,19.17
2019-04-29T10:01:34.432Z,21.53
2019-04-29T10:06:43.964Z,19.10
2019-04-29T10:11:49.885Z,21.27
2019-04-29T10:16:56.665Z,19.63
2019-04-29T10:22:01.970Z,21.63
2019-04-29T10:27:07.459Z,19.90
2019-04-29T10:32:13.183Z,19.40
2019-04-29T10:37:18.198Z,18.53
2019-04-29T10:42:31.068Z,18.00
2019-04-29T10:47:37.765Z,19.17
2019-04-29T10:52:44.015Z,17.97
2019-04-29T10:57:49.722Z,19.00
2019-04-29T11:02:55.367Z,17.90
2019-04-29T11:08:02.537Z,14.57
2019-04-29T11:13:09.211Z,14.40
2019-04-29T11:18:18.148Z,16.20
2019-04-29T11:23:28.779Z,10.10
2019-04-29T11:28:34.611Z,15.88
2019-04-29T11:33:47.243Z,15.38
2019-04-29T11:38:52.559Z,14.98
2019-04-29T11:43:57.620Z,14.47
2019-04-29T11:49:04.391Z,11.55
2019-04-29T11:54:12.758Z,12.65
2019-04-29T11:59:27.100Z,11.97
2019-04-29T12:04:34.719Z,13.43
2019-04-29T12:09:40.986Z,11.95
2019-04-29T12:14:50.587Z,11.60
2019-04-29T12:20:09.531Z,12.25
2019-04-29T12:25:14.804Z,10.80
2019-04-29T12:30:21.615Z,11.73
2019-04-29T12:35:30.132Z,12.18
2019-04-29T12:40:49.781Z,11.85
2019-04-29T12:46:15.193Z,12.50
2019-04-29T12:51:20.536Z,12.23
2019-04-29T12:56:27.239Z,11.20
2019-04-29T13:01:51.485Z,14.35
2019-04-29T13:06:54.299Z,12.73
2019-04-29T13:12:17.755Z,12.45
2019-04-29T13:17:14.276Z,13.72
2019-04-29T13:22:15.489Z,12.75
2019-04-29T13:27:25.304Z,11.73
2019-04-29T13:32:29.851Z,14.60
2019-04-29T13:37:34.808Z,11.55
2019-04-29T13:42:39.996Z,11.57
2019-04-29T13:47:50.347Z,13.83
2019-04-29T13:52:53.310Z,12.13
2019-04-29T13:57:58.430Z,12.35
2019-04-29T14:03:07.322Z,12.60
2019-04-29T14:08:11.746Z,12.80
2019-04-29T14:13:20.965Z,11.50
2019-04-29T14:18:24.724Z,11.57
2019-04-29T14:23:30.003Z,11.40
2019-04-29T14:28:35.125Z,11.95
2019-04-29T14:33:47.744Z,11.28
2019-04-29T14:38:52.778Z,10.53
2019-04-29T14:44:02.167Z,10.82
2019-04-29T14:49:11.579Z,10.50
2019-04-29T14:54:16.711Z,11.38
2019-04-29T14:59:21.945Z,10.53
2019-04-29T15:04:34.825Z,10.72
2019-04-29T15:09:46.758Z,11.15
2019-04-29T15:15:06.365Z,10.90
2019-04-29T15:20:30.063Z,10.93
2019-04-29T15:25:31.712Z,12.10
2019-04-29T15:30:38.396Z,11.73
2019-04-29T15:35:43.489Z,11.50
2019-04-29T15:40:48.543Z,11.10
2019-04-29T15:45:53.605Z,10.55
2019-04-29T15:50:58.567Z,10.48
2019-04-29T15:56:07.149Z,10.10
2019-04-29T16:01:16.853Z,10.75
2019-04-29T16:06:21.355Z,10.28
2019-04-29T16:11:39.851Z,10.63
2019-04-29T16:16:44.907Z,10.38
2019-04-29T16:21:50.011Z,10.82
2019-04-29T16:26:55.007Z,10.20
2019-04-29T16:32:02.326Z,10.35
2019-04-29T16:37:06.960Z,9.83
2019-04-29T16:42:16.381Z,11.30
2019-04-29T16:47:23.168Z,11.22
2019-04-29T16:52:28.140Z,9.83
2019-04-29T16:57:33.261Z,10.80
2019-04-29T17:02:38.307Z,10.50
2019-04-29T17:07:43.436Z,11.22
2019-04-29T17:12:50.473Z,11.00
2019-04-29T17:17:55.626Z,11.83
2019-04-29T17:23:00.648Z,10.35
2019-04-29T17:28:24.337Z,10.53
2019-04-29T17:33:30.001Z,10.48
2019-04-29T17:38:35.675Z,10.40
2019-04-29T17:43:44.729Z,9.83
2019-04-29T17:48:57.279Z,11.00
2019-04-29T17:54:05.344Z,10.63
2019-04-29T17:59:29.725Z,9.68
2019-04-29T18:04:49.641Z,11.00
2019-04-29T18:09:58.391Z,12.23
2019-04-29T18:15:03.583Z,12.47
2019-04-29T18:20:13.717Z,11.50
2019-04-29T18:25:30.769Z,11.27
2019-04-29T18:30:35.707Z,11.10
2019-04-29T18:35:36.991Z,11.07
2019-04-29T18:40:44.275Z,11.33
2019-04-29T18:45:56.193Z,11.07
2019-04-29T18:50:57.093Z,10.83
2019-04-29T18:56:05.120Z,11.60
2019-04-29T19:01:10.068Z,10.30
2019-04-29T19:06:15.233Z,11.40
2019-04-29T19:11:29.903Z,10.60
2019-04-29T19:16:27.601Z,9.83
2019-04-29T19:21:32.752Z,9.43
2019-04-29T19:26:37.842Z,9.37
2019-04-29T19:31:46.727Z,9.17
2019-04-29T19:36:50.689Z,9.30
2019-04-29T19:41:56.420Z,9.40
2019-04-29T19:47:01.435Z,7.93
2019-04-29T19:52:06.564Z,8.33
2019-04-29T19:57:11.608Z,8.10
2019-04-29T20:02:17.388Z,8.20
2019-04-29T20:07:23.660Z,7.83
2019-04-29T20:12:30.089Z,7.30
2019-04-29T20:17:37.367Z,7.37
2019-04-29T20:22:46.283Z,7.97
2019-04-29T20:27:49.727Z,7.90
2019-04-29T20:32:56.174Z,7.87
2019-04-29T20:38:01.436Z,7.80
2019-04-29T20:43:08.328Z,7.63
2019-04-29T20:48:17.869Z,7.47
2019-04-29T20:53:25.662Z,7.83
2019-04-29T20:58:32.678Z,6.60
2019-04-29T21:03:41.041Z,7.17
2019-04-29T21:08:44.972Z,5.93
2019-04-29T21:13:55.996Z,5.93
2019-04-29T21:19:00.996Z,6.77
2019-04-29T21:24:13.607Z,5.97
2019-04-29T21:29:15.814Z,6.40
2019-04-29T21:34:21.287Z,6.17
2019-04-29T21:39:36.496Z,6.43
2019-04-29T21:44:41.715Z,5.83
2019-04-29T21:49:49.867Z,5.83
2019-04-29T21:54:54.918Z,5.90
2019-04-29T22:00:01.140Z,6.03
2019-04-29T22:05:09.505Z,6.40
2019-04-29T22:10:19.743Z,6.33
2019-04-29T22:15:32.077Z,6.43
2019-04-29T22:20:29.315Z,6.73
2019-04-29T22:25:36.476Z,5.80
2019-04-29T22:30:41.153Z,6.53
2019-04-29T22:35:46.269Z,5.20
2019-04-29T22:40:52.423Z,5.83
2019-04-29T22:45:57.543Z,5.43
2019-04-29T22:51:02.679Z,5.30
2019-04-29T22:56:09.000Z,6.30
2019-04-29T23:01:15.591Z,5.83
2019-04-29T23:06:21.182Z,5.70
2019-04-29T23:11:26.475Z,5.37
2019-04-29T23:16:35.645Z,4.70
2019-04-29T23:21:56.671Z,5.37
2019-04-29T23:27:01.643Z,5.83
2019-04-29T23:32:08.412Z,6.37
2019-04-29T23:37:13.518Z,5.57
2019-04-29T23:42:18.709Z,5.00
2019-04-29T23:47:25.668Z,5.10
2019-04-29T23:52:30.407Z,5.20
2019-04-29T23:57:40.055Z,5.30
